createdAt,value
2022-09-30T00:01:42.544Z,8.47
2022-09-30T00:04:14.646Z,7.53
2022-09-30T00:06:42.975Z,8.67
2022-09-30T00:09:15.106Z,6.90
2022-09-30T00:11:44.230Z,8.30
2022-09-30T00:14:16.858Z,8.57
2022-09-30T00:16:47.295Z,7.50
2022-09-30T00:19:16.226Z,8.43
2022-09-30T00:21:44.670Z,9.00
2022-09-30T00:24:13.080Z,7.70
2022-09-30T00:26:41.363Z,8.77
2022-09-30T00:29:11.139Z,8.53
2022-09-30T00:31:39.912Z,7.37
2022-09-30T00:34:11.614Z,6.97
2022-09-30T00:36:43.590Z,7.00
2022-09-30T00:39:16.692Z,5.73
2022-09-30T00:41:46.767Z,6.47
2022-09-30T00:44:44.575Z,5.80
2022-09-30T00:47:35.821Z,5.80
2022-09-30T00:50:14.840Z,6.53
2022-09-30T00:52:45.233Z,5.10
2022-09-30T00:55:24.430Z,5.20
2022-09-30T00:57:53.062Z,5.63
2022-09-30T01:00:21.479Z,5.83
2022-09-30T01:02:50.602Z,6.67
2022-09-30T01:05:20.317Z,5.57
2022-09-30T01:07:50.200Z,6.47
2022-09-30T01:10:18.605Z,5.97
2022-09-30T01:12:47.040Z,8.43
2022-09-30T01:15:15.473Z,5.20
2022-09-30T01:17:54.466Z,7.03
2022-09-30T01:20:52.980Z,5.10
2022-09-30T01:24:01.830Z,4.73
2022-09-30T01:27:16.363Z,6.43
2022-09-30T01:30:21.259Z,6.50
2022-09-30T01:33:22.357Z,8.50
2022-09-30T01:36:17.666Z,6.13
2022-09-30T01:38:55.420Z,6.80
2022-09-30T01:41:29.315Z,5.50
2022-09-30T01:44:05.791Z,5.20
2022-09-30T01:46:37.411Z,5.83
2022-09-30T01:49:18.218Z,6.00
2022-09-30T01:51:54.742Z,4.47
2022-09-30T01:54:28.728Z,5.90
2022-09-30T01:57:05.018Z,5.63
2022-09-30T01:59:37.435Z,14.27
2022-09-30T02:02:11.131Z,6.70
2022-09-30T02:04:46.392Z,5.80
2022-09-30T02:07:20.172Z,6.07
2022-09-30T02:09:53.442Z,7.17
2022-09-30T02:12:25.665Z,8.60
2022-09-30T02:15:00.176Z,10.53
2022-09-30T02:17:34.224Z,6.53
2022-09-30T02:20:19.876Z,6.63
2022-09-30T02:22:52.000Z,7.50
2022-09-30T02:25:25.091Z,6.83
2022-09-30T02:27:56.918Z,6.30
2022-09-30T02:30:25.616Z,10.33
2022-09-30T02:33:00.998Z,6.70
2022-09-30T02:35:36.097Z,7.57
2022-09-30T02:38:10.451Z,6.83
2022-09-30T02:40:47.288Z,5.40
2022-09-30T02:43:17.748Z,7.00
2022-09-30T02:45:54.188Z,7.40
2022-09-30T02:48:31.910Z,7.43
2022-09-30T02:51:06.588Z,7.93
2022-09-30T02:53:39.429Z,4.93
2022-09-30T02:56:15.639Z,8.33
2022-09-30T02:58:44.824Z,8.00
2022-09-30T03:01:15.339Z,7.30
2022-09-30T03:03:46.280Z,7.17
2022-09-30T03:06:16.593Z,9.20
2022-09-30T03:08:45.607Z,11.70
2022-09-30T03:11:17.591Z,7.90
2022-09-30T03:14:11.403Z,7.20
2022-09-30T03:17:12.636Z,9.07
2022-09-30T03:19:52.736Z,4.80
2022-09-30T03:22:40.656Z,7.00
2022-09-30T03:25:24.797Z,5.73
2022-09-30T03:28:02.288Z,9.60
2022-09-30T03:30:33.561Z,8.33
2022-09-30T03:33:11.079Z,6.37
2022-09-30T03:35:49.016Z,7.53
2022-09-30T03:38:29.841Z,6.00
2022-09-30T03:41:05.018Z,6.30
2022-09-30T03:43:36.699Z,9.47
2022-09-30T03:46:10.284Z,9.90
2022-09-30T03:48:40.142Z,10.83
2022-09-30T03:51:10.331Z,5.20
2022-09-30T03:53:44.077Z,7.90
2022-09-30T03:56:12.557Z,4.63
2022-09-30T03:58:44.054Z,4.90
2022-09-30T04:01:21.357Z,4.47
2022-09-30T04:03:52.385Z,6.10
2022-09-30T04:06:23.059Z,4.40
2022-09-30T04:08:53.932Z,5.80
2022-09-30T04:11:25.204Z,4.90
2022-09-30T04:13:53.690Z,8.20
2022-09-30T04:16:22.122Z,4.57
2022-09-30T04:18:51.562Z,7.23
2022-09-30T04:21:19.915Z,4.37
2022-09-30T04:23:48.247Z,4.03
2022-09-30T04:26:20.094Z,5.80
2022-09-30T04:28:48.760Z,5.60
2022-09-30T04:31:17.828Z,6.13
2022-09-30T04:33:46.468Z,4.13
2022-09-30T04:36:14.929Z,9.50
2022-09-30T04:38:43.635Z,6.07
2022-09-30T04:41:16.279Z,4.70
2022-09-30T04:43:47.171Z,5.97
2022-09-30T04:46:16.073Z,40.07
2022-09-30T04:48:45.891Z,19.40
2022-09-30T04:51:14.789Z,104.77
2022-09-30T04:53:43.829Z,23.50
2022-09-30T04:56:13.129Z,13.37
2022-09-30T04:58:41.597Z,14.67
2022-09-30T05:01:13.813Z,8.17
2022-09-30T05:03:43.495Z,7.00
2022-09-30T05:06:13.382Z,9.93
2022-09-30T05:08:45.961Z,6.80
2022-09-30T05:11:17.468Z,7.43
2022-09-30T05:13:46.891Z,10.97
2022-09-30T05:16:17.846Z,5.10
2022-09-30T05:18:47.193Z,7.43
2022-09-30T05:21:17.219Z,6.80
2022-09-30T05:23:46.119Z,5.83
2022-09-30T05:26:14.956Z,5.40
2022-09-30T05:28:44.111Z,7.10
2022-09-30T05:31:13.865Z,7.13
2022-09-30T05:33:45.172Z,14.87
2022-09-30T05:36:16.670Z,20.50
2022-09-30T05:38:45.561Z,12.10
2022-09-30T05:41:15.569Z,7.83
2022-09-30T05:43:47.711Z,6.30
2022-09-30T05:46:16.179Z,7.10
2022-09-30T05:48:46.832Z,6.10
2022-09-30T05:51:15.666Z,6.23
2022-09-30T05:53:44.878Z,5.63
2022-09-30T05:56:14.643Z,7.07
2022-09-30T05:58:43.552Z,4.23
2022-09-30T06:01:14.700Z,6.73
2022-09-30T06:03:45.575Z,5.10
2022-09-30T06:06:15.065Z,6.90
2022-09-30T06:08:44.763Z,6.47
2022-09-30T06:11:16.117Z,4.20
2022-09-30T06:13:45.986Z,6.70
2022-09-30T06:16:15.698Z,5.40
2022-09-30T06:18:45.980Z,5.03
2022-09-30T06:21:16.933Z,4.20
2022-09-30T06:23:47.584Z,61.53
2022-09-30T06:26:16.493Z,39.27
2022-09-30T06:28:45.329Z,20.70
2022-09-30T06:31:13.705Z,14.47
2022-09-30T06:33:42.226Z,9.00
2022-09-30T06:36:11.985Z,5.87
2022-09-30T06:38:40.530Z,6.13
2022-09-30T06:41:09.009Z,5.57
2022-09-30T06:43:46.740Z,5.90
2022-09-30T06:46:30.262Z,5.20
2022-09-30T06:49:11.107Z,7.73
2022-09-30T06:51:43.046Z,5.40
2022-09-30T06:54:11.723Z,4.43
2022-09-30T06:56:39.901Z,46.20
2022-09-30T06:59:08.116Z,35.77
2022-09-30T07:01:36.334Z,13.97
2022-09-30T07:04:09.454Z,9.97
2022-09-30T07:06:39.060Z,7.37
2022-09-30T07:09:10.474Z,7.93
2022-09-30T07:11:39.527Z,11.73
2022-09-30T07:14:08.798Z,4.93
2022-09-30T07:16:38.509Z,4.97
2022-09-30T07:19:10.276Z,8.50
2022-09-30T07:21:38.480Z,4.60
2022-09-30T07:24:09.259Z,7.50
2022-09-30T07:26:40.756Z,5.33
2022-09-30T07:29:08.878Z,4.43
2022-09-30T07:31:37.245Z,6.67
2022-09-30T07:34:08.047Z,6.93
2022-09-30T07:36:37.814Z,6.17
2022-09-30T07:39:10.610Z,5.53
2022-09-30T07:41:41.207Z,4.53
2022-09-30T07:44:15.066Z,5.23
2022-09-30T07:46:46.588Z,6.07
2022-09-30T07:49:25.330Z,6.50
2022-09-30T07:51:57.405Z,5.70
2022-09-30T07:54:30.363Z,5.43
2022-09-30T07:57:10.249Z,4.83
2022-09-30T07:59:42.002Z,7.63
2022-09-30T08:02:19.095Z,75.00
2022-09-30T08:04:48.184Z,54.33
2022-09-30T08:07:18.913Z,32.40
2022-09-30T08:09:49.310Z,31.83
2022-09-30T08:12:18.569Z,38.07
2022-09-30T08:14:46.965Z,29.03
2022-09-30T08:17:15.528Z,21.03
2022-09-30T08:19:44.868Z,15.90
2022-09-30T08:22:14.229Z,13.17
2022-09-30T08:24:43.315Z,10.03
2022-09-30T08:27:13.348Z,7.73
2022-09-30T08:29:54.504Z,7.70
2022-09-30T08:32:24.037Z,8.97
2022-09-30T08:34:52.333Z,7.80
2022-09-30T08:37:20.495Z,8.20
2022-09-30T08:39:48.695Z,7.80
2022-09-30T08:42:51.456Z,9.23
2022-09-30T08:45:33.233Z,11.07
2022-09-30T08:48:13.776Z,7.73
2022-09-30T08:50:54.467Z,9.13
2022-09-30T08:53:30.260Z,9.20
2022-09-30T08:56:02.594Z,8.47
2022-09-30T08:58:34.888Z,10.50
2022-09-30T09:01:11.424Z,18.40
2022-09-30T09:03:40.618Z,33.17
2022-09-30T09:06:24.720Z,20.13
2022-09-30T09:09:12.170Z,15.83
2022-09-30T09:12:00.319Z,13.50
2022-09-30T09:14:43.406Z,14.53
2022-09-30T09:17:23.516Z,10.70
2022-09-30T09:20:01.178Z,10.60
2022-09-30T09:22:31.602Z,9.57
2022-09-30T09:25:02.138Z,8.50
2022-09-30T09:27:38.663Z,9.73
2022-09-30T09:30:10.768Z,8.30
2022-09-30T09:32:39.266Z,8.03
2022-09-30T09:35:15.713Z,6.40
2022-09-30T09:38:09.637Z,6.90
2022-09-30T09:40:57.209Z,8.23
2022-09-30T09:43:38.412Z,7.73
2022-09-30T09:46:16.461Z,6.77
2022-09-30T09:48:44.840Z,7.53
2022-09-30T09:51:21.242Z,18.50
2022-09-30T09:53:52.784Z,33.77
2022-09-30T09:56:25.433Z,26.77
2022-09-30T09:59:15.931Z,25.53
2022-09-30T10:01:50.270Z,15.27
2022-09-30T10:04:22.131Z,13.37
2022-09-30T10:06:54.083Z,11.47
2022-09-30T10:09:30.745Z,10.53
2022-09-30T10:12:31.116Z,10.50
2022-09-30T10:15:03.126Z,11.30
2022-09-30T10:17:35.352Z,11.23
2022-09-30T10:20:08.080Z,9.40
2022-09-30T10:22:37.700Z,9.40
2022-09-30T10:25:22.215Z,8.67
2022-09-30T10:27:53.844Z,8.70
2022-09-30T10:30:44.433Z,8.00
2022-09-30T10:33:26.828Z,8.50
2022-09-30T10:35:58.444Z,14.30
2022-09-30T10:38:29.535Z,36.97
2022-09-30T10:40:58.259Z,38.43
2022-09-30T10:43:31.074Z,26.70
2022-09-30T10:46:24.442Z,19.90
2022-09-30T10:48:55.904Z,15.63
2022-09-30T10:51:36.434Z,17.97
2022-09-30T10:54:06.733Z,12.20
2022-09-30T10:56:46.331Z,9.10
2022-09-30T10:59:36.544Z,9.43
2022-09-30T11:02:25.126Z,9.07
2022-09-30T11:05:03.689Z,9.73
2022-09-30T11:07:36.055Z,9.23
2022-09-30T11:10:09.736Z,6.30
2022-09-30T11:12:45.802Z,8.97
2022-09-30T11:15:21.528Z,6.93
2022-09-30T11:17:55.066Z,5.63
2022-09-30T11:20:29.530Z,26.67
2022-09-30T11:23:03.747Z,37.43
2022-09-30T11:25:44.267Z,23.70
2022-09-30T11:28:44.212Z,11.47
2022-09-30T11:31:24.388Z,9.30
2022-09-30T11:34:10.047Z,6.30
2022-09-30T11:36:47.650Z,4.87
2022-09-30T11:39:40.779Z,4.87
2022-09-30T11:42:15.324Z,4.40
2022-09-30T11:44:46.318Z,4.17
2022-09-30T11:47:28.601Z,9.63
2022-09-30T11:50:16.217Z,4.00
2022-09-30T11:52:56.507Z,3.47
2022-09-30T11:55:47.285Z,3.97
2022-09-30T11:58:40.403Z,2.80
2022-09-30T12:01:18.277Z,3.93
2022-09-30T12:03:55.992Z,4.43
2022-09-30T12:06:31.692Z,3.97
2022-09-30T12:09:08.938Z,2.90
2022-09-30T12:11:43.853Z,3.33
2022-09-30T12:14:18.346Z,2.63
2022-09-30T12:16:49.080Z,3.40
2022-09-30T12:19:25.423Z,3.90
2022-09-30T12:21:59.660Z,2.80
2022-09-30T12:24:33.896Z,2.40
2022-09-30T12:27:02.924Z,2.60
2022-09-30T12:29:53.795Z,2.70
2022-09-30T12:32:47.035Z,3.53
2022-09-30T12:35:36.509Z,2.93
2022-09-30T12:38:20.429Z,3.10
2022-09-30T12:41:02.145Z,3.13
2022-09-30T12:43:56.966Z,2.97
2022-09-30T12:46:40.161Z,3.33
2022-09-30T12:49:15.724Z,6.27
2022-09-30T12:51:46.101Z,14.10
2022-09-30T12:54:17.509Z,25.10
2022-09-30T12:56:53.974Z,12.80
2022-09-30T12:59:28.117Z,7.47
2022-09-30T13:01:57.854Z,4.50
2022-09-30T13:04:35.084Z,4.40
2022-09-30T13:07:09.702Z,3.93
2022-09-30T13:09:56.279Z,3.30
2022-09-30T13:12:40.885Z,3.40
2022-09-30T13:15:40.749Z,3.90
2022-09-30T13:18:46.207Z,3.63
2022-09-30T13:21:23.697Z,4.87
2022-09-30T13:23:52.719Z,2.87
2022-09-30T13:26:48.629Z,5.30
2022-09-30T13:29:39.867Z,2.60
2022-09-30T13:32:10.038Z,2.77
2022-09-30T13:34:58.324Z,2.93
2022-09-30T13:37:36.250Z,3.50
2022-09-30T13:40:07.565Z,3.53
2022-09-30T13:42:43.020Z,3.63
2022-09-30T13:45:18.418Z,3.00
2022-09-30T13:47:50.651Z,2.87
2022-09-30T13:50:23.859Z,3.33
2022-09-30T13:52:56.527Z,3.03
2022-09-30T13:55:30.001Z,4.17
2022-09-30T13:58:10.624Z,3.27
2022-09-30T14:00:55.350Z,5.30
2022-09-30T14:03:47.825Z,4.00
2022-09-30T14:06:27.400Z,4.50
2022-09-30T14:09:20.051Z,3.03
2022-09-30T14:12:14.634Z,3.10
2022-09-30T14:15:25.852Z,3.60
2022-09-30T14:18:25.418Z,24.60
2022-09-30T14:21:06.577Z,26.40
2022-09-30T14:23:35.206Z,15.37
2022-09-30T14:26:24.920Z,7.77
2022-09-30T14:29:00.883Z,4.00
2022-09-30T14:31:32.278Z,2.43
2022-09-30T14:34:02.639Z,2.80
2022-09-30T14:36:31.291Z,2.30
2022-09-30T14:39:02.398Z,2.67
2022-09-30T14:41:31.453Z,1.97
2022-09-30T14:44:04.989Z,2.13
2022-09-30T14:47:00.962Z,2.50
2022-09-30T14:49:34.754Z,2.53
2022-09-30T14:52:03.926Z,1.57
2022-09-30T14:54:36.875Z,3.80
2022-09-30T14:57:17.218Z,1.60
2022-09-30T14:59:45.538Z,2.50
2022-09-30T15:02:18.468Z,2.00
2022-09-30T15:04:52.478Z,1.90
2022-09-30T15:07:21.192Z,1.83
2022-09-30T15:09:50.877Z,1.87
2022-09-30T15:12:22.250Z,3.53
2022-09-30T15:14:53.101Z,1.73
2022-09-30T15:17:24.272Z,1.90
2022-09-30T15:19:55.666Z,5.13
2022-09-30T15:22:26.274Z,2.10
2022-09-30T15:24:55.450Z,1.57
2022-09-30T15:27:30.081Z,1.60
2022-09-30T15:29:59.762Z,68.37
2022-09-30T15:32:30.423Z,64.50
2022-09-30T15:35:06.483Z,37.70
2022-09-30T15:37:34.821Z,14.10
2022-09-30T15:40:23.605Z,10.53
2022-09-30T15:42:59.598Z,6.77
2022-09-30T15:45:35.288Z,4.17
2022-09-30T15:48:07.227Z,2.60
2022-09-30T15:50:44.460Z,1.80
2022-09-30T15:53:22.657Z,2.73
2022-09-30T15:55:55.780Z,1.40
2022-09-30T15:58:37.882Z,1.70
2022-09-30T16:01:21.573Z,1.40
2022-09-30T16:03:56.476Z,1.30
2022-09-30T16:06:32.560Z,2.40
2022-09-30T16:09:03.346Z,1.67
2022-09-30T16:11:36.573Z,4.10
2022-09-30T16:14:08.874Z,1.13
2022-09-30T16:16:39.048Z,1.20
2022-09-30T16:19:16.765Z,1.13
2022-09-30T16:21:50.878Z,1.10
2022-09-30T16:24:50.062Z,1.03
2022-09-30T16:27:25.982Z,1.73
2022-09-30T16:29:54.160Z,2.83
2022-09-30T16:32:22.872Z,1.40
2022-09-30T16:34:51.194Z,1.63
2022-09-30T16:37:22.223Z,1.80
2022-09-30T16:39:51.229Z,1.40
2022-09-30T16:42:20.179Z,3.47
2022-09-30T16:44:48.436Z,2.00
2022-09-30T16:47:19.245Z,1.77
2022-09-30T16:49:48.051Z,1.70
2022-09-30T16:52:17.462Z,1.50
2022-09-30T16:54:47.239Z,3.13
2022-09-30T16:57:16.892Z,1.40
2022-09-30T16:59:45.364Z,1.20
2022-09-30T17:02:16.795Z,2.70
2022-09-30T17:04:46.903Z,1.00
2022-09-30T17:07:15.512Z,1.10
2022-09-30T17:09:45.891Z,1.20
2022-09-30T17:12:14.572Z,1.20
2022-09-30T17:14:43.801Z,1.30
2022-09-30T17:17:13.584Z,1.70
2022-09-30T17:19:42.535Z,1.57
2022-09-30T17:22:10.772Z,18.77
2022-09-30T17:24:38.934Z,18.10
2022-09-30T17:27:08.469Z,12.90
2022-09-30T17:29:41.798Z,8.27
2022-09-30T17:32:11.078Z,7.97
2022-09-30T17:34:41.211Z,5.50
2022-09-30T17:37:09.482Z,4.40
2022-09-30T17:39:37.647Z,3.47
2022-09-30T17:42:24.009Z,3.87
2022-09-30T17:44:54.081Z,2.60
2022-09-30T17:47:22.510Z,2.63
2022-09-30T17:49:50.831Z,2.47
2022-09-30T17:52:19.038Z,2.37
2022-09-30T17:54:52.073Z,2.80
2022-09-30T17:57:21.502Z,2.27
2022-09-30T17:59:50.074Z,3.40
2022-09-30T18:02:21.284Z,3.93
2022-09-30T18:04:49.865Z,3.97
2022-09-30T18:07:19.712Z,3.40
2022-09-30T18:09:48.176Z,3.27
2022-09-30T18:12:16.506Z,3.40
2022-09-30T18:14:44.940Z,4.10
2022-09-30T18:17:13.430Z,3.27
2022-09-30T18:19:43.174Z,2.53
2022-09-30T18:22:11.517Z,2.33
2022-09-30T18:24:57.365Z,2.73
2022-09-30T18:27:26.055Z,1.87
2022-09-30T18:29:54.207Z,2.43
2022-09-30T18:32:22.517Z,2.77
2022-09-30T18:34:52.278Z,2.40
2022-09-30T18:37:20.900Z,1.90
2022-09-30T18:39:49.426Z,2.67
2022-09-30T18:42:18.886Z,3.53
2022-09-30T18:44:47.431Z,2.17
2022-09-30T18:47:17.088Z,3.60
2022-09-30T18:49:45.927Z,1.97
2022-09-30T18:52:16.916Z,2.27
2022-09-30T18:54:45.073Z,3.00
2022-09-30T18:57:13.620Z,3.53
2022-09-30T18:59:41.857Z,3.63
2022-09-30T19:02:14.538Z,4.03
2022-09-30T19:04:42.701Z,3.50
2022-09-30T19:07:11.033Z,3.13
2022-09-30T19:09:41.149Z,2.90
2022-09-30T19:12:09.382Z,3.13
2022-09-30T19:14:37.969Z,4.43
2022-09-30T19:17:06.225Z,3.07
2022-09-30T19:19:41.171Z,6.20
2022-09-30T19:22:10.583Z,4.20
2022-09-30T19:24:41.419Z,3.67
2022-09-30T19:27:10.311Z,3.00
2022-09-30T19:29:39.195Z,3.50
2022-09-30T19:32:09.762Z,1.60
2022-09-30T19:34:38.442Z,2.40
2022-09-30T19:37:16.098Z,2.13
2022-09-30T19:39:48.678Z,2.27
2022-09-30T19:42:19.910Z,2.30
2022-09-30T19:44:48.554Z,1.87
2022-09-30T19:47:18.732Z,2.73
2022-09-30T19:49:47.670Z,2.90
2022-09-30T19:52:21.853Z,3.67
2022-09-30T19:54:55.270Z,3.50
2022-09-30T19:57:25.884Z,6.70
2022-09-30T19:59:54.373Z,1.93
2022-09-30T20:02:25.115Z,3.20
2022-09-30T20:04:54.807Z,2.13
2022-09-30T20:07:22.960Z,2.10
2022-09-30T20:09:53.172Z,2.17
2022-09-30T20:12:21.799Z,5.93
2022-09-30T20:15:07.185Z,2.43
2022-09-30T20:17:35.858Z,3.37
2022-09-30T20:20:21.795Z,2.97
2022-09-30T20:22:50.009Z,2.90
2022-09-30T20:25:19.716Z,2.00
2022-09-30T20:27:52.269Z,3.00
2022-09-30T20:30:21.088Z,4.40
2022-09-30T20:32:49.282Z,2.00
2022-09-30T20:35:17.801Z,2.50
2022-09-30T20:37:46.162Z,2.00
2022-09-30T20:40:14.721Z,1.70
2022-09-30T20:42:44.384Z,2.33
2022-09-30T20:45:13.464Z,3.00
2022-09-30T20:47:44.929Z,2.20
2022-09-30T20:50:14.209Z,4.60
2022-09-30T20:52:43.182Z,2.10
2022-09-30T20:55:11.628Z,5.40
2022-09-30T20:57:41.575Z,3.40
2022-09-30T21:00:17.150Z,5.07
2022-09-30T21:02:46.337Z,2.53
2022-09-30T21:05:14.755Z,2.43
2022-09-30T21:07:42.921Z,2.53
2022-09-30T21:10:11.350Z,2.30
2022-09-30T21:12:39.573Z,3.83
2022-09-30T21:15:09.888Z,7.97
2022-09-30T21:17:40.361Z,2.00
2022-09-30T21:20:09.501Z,2.53
2022-09-30T21:22:38.714Z,1.80
2022-09-30T21:25:07.887Z,3.27
2022-09-30T21:27:36.102Z,3.47
2022-09-30T21:30:05.978Z,2.47
2022-09-30T21:32:34.264Z,2.47
2022-09-30T21:35:04.262Z,2.63
2022-09-30T21:37:32.469Z,2.30
2022-09-30T21:40:00.877Z,2.10
2022-09-30T21:42:29.501Z,2.60
2022-09-30T21:44:57.643Z,1.90
2022-09-30T21:47:25.883Z,2.93
2022-09-30T21:49:54.143Z,4.00
2022-09-30T21:52:23.777Z,2.80
2022-09-30T21:54:55.734Z,3.53
2022-09-30T21:57:24.149Z,2.03
2022-09-30T21:59:52.586Z,2.27
2022-09-30T22:02:20.863Z,2.50
2022-09-30T22:04:49.054Z,2.20
2022-09-30T22:07:17.161Z,2.90
2022-09-30T22:09:46.787Z,2.27
2022-09-30T22:12:14.949Z,2.97
2022-09-30T22:14:43.171Z,3.43
2022-09-30T22:17:11.427Z,2.10
2022-09-30T22:19:39.626Z,2.53
2022-09-30T22:22:07.789Z,1.97
2022-09-30T22:24:36.892Z,1.90
2022-09-30T22:27:07.409Z,4.67
2022-09-30T22:29:40.777Z,2.70
2022-09-30T22:32:09.085Z,2.10
2022-09-30T22:34:54.863Z,2.30
2022-09-30T22:37:40.185Z,1.87
2022-09-30T22:40:08.875Z,2.17
2022-09-30T22:42:38.702Z,2.10
2022-09-30T22:45:08.041Z,1.83
2022-09-30T22:47:36.747Z,2.17
2022-09-30T22:50:05.176Z,2.70
2022-09-30T22:52:33.456Z,1.70
2022-09-30T22:55:01.610Z,2.23
2022-09-30T22:57:30.921Z,2.13
2022-09-30T23:00:00.655Z,2.47
2022-09-30T23:02:29.057Z,3.13
2022-09-30T23:04:57.330Z,2.20
2022-09-30T23:07:25.503Z,3.10
2022-09-30T23:09:53.654Z,3.63
2022-09-30T23:12:21.847Z,2.07
2022-09-30T23:14:50.564Z,4.70
2022-09-30T23:17:20.228Z,2.30
2022-09-30T23:19:48.465Z,2.20
2022-09-30T23:22:18.665Z,2.83
2022-09-30T23:24:46.812Z,2.33
2022-09-30T23:27:15.068Z,2.00
2022-09-30T23:29:43.231Z,4.93
2022-09-30T23:32:11.541Z,3.27
2022-09-30T23:34:41.105Z,2.67
2022-09-30T23:37:09.190Z,2.50
2022-09-30T23:39:37.355Z,2.33
2022-09-30T23:42:05.575Z,2.10
2022-09-30T23:44:33.741Z,4.03
2022-09-30T23:47:20.131Z,3.20
2022-09-30T23:49:50.416Z,3.77
2022-09-30T23:52:18.668Z,3.57
2022-09-30T23:54:46.950Z,5.90
2022-09-30T23:57:15.117Z,2.70
2022-09-30T23:59:43.274Z,3.93
